sensor_id;sensor_type;location;lat;lon;timestamp;P1;durP1;ratioP1;P2;durP2;ratioP2
74656;SDS011;63185;45.642;13.764;2023-03-14T00:01:39;7.72;;;2.65;;
74656;SDS011;63185;45.642;13.764;2023-03-14T00:04:05;9.82;;;2.88;;
74656;SDS011;63185;45.642;13.764;2023-03-14T00:06:31;6.82;;;2.55;;
74656;SDS011;63185;45.642;13.764;2023-03-14T00:08:58;7.05;;;2.50;;
74656;SDS011;63185;45.642;13.764;2023-03-14T00:11:23;8.40;;;2.78;;
74656;SDS011;63185;45.642;13.764;2023-03-14T00:13:49;10.70;;;2.95;;
74656;SDS011;63185;45.642;13.764;2023-03-14T00:16:16;10.13;;;2.80;;
74656;SDS011;63185;45.642;13.764;2023-03-14T00:18:41;11.10;;;3.00;;
74656;SDS011;63185;45.642;13.764;2023-03-14T00:21:08;8.02;;;2.83;;
74656;SDS011;63185;45.642;13.764;2023-03-14T00:23:35;6.25;;;3.08;;
74656;SDS011;63185;45.642;13.764;2023-03-14T00:26:04;8.30;;;2.70;;
74656;SDS011;63185;45.642;13.764;2023-03-14T00:28:31;7.78;;;3.05;;
74656;SDS011;63185;45.642;13.764;2023-03-14T00:30:57;7.10;;;2.40;;
74656;SDS011;63185;45.642;13.764;2023-03-14T00:33:23;10.57;;;2.67;;
74656;SDS011;63185;45.642;13.764;2023-03-14T00:36:08;10.80;;;2.45;;
74656;SDS011;63185;45.642;13.764;2023-03-14T00:38:35;11.45;;;2.50;;
74656;SDS011;63185;45.642;13.764;2023-03-14T00:41:09;9.07;;;3.00;;
74656;SDS011;63185;45.642;13.764;2023-03-14T00:43:37;9.50;;;2.63;;
74656;SDS011;63185;45.642;13.764;2023-03-14T00:46:03;9.07;;;2.67;;
74656;SDS011;63185;45.642;13.764;2023-03-14T00:48:29;18.00;;;3.50;;
74656;SDS011;63185;45.642;13.764;2023-03-14T00:50:55;9.60;;;2.50;;
74656;SDS011;63185;45.642;13.764;2023-03-14T00:53:21;7.35;;;2.50;;
74656;SDS011;63185;45.642;13.764;2023-03-14T00:55:47;10.70;;;2.80;;
74656;SDS011;63185;45.642;13.764;2023-03-14T00:58:14;13.77;;;2.95;;
74656;SDS011;63185;45.642;13.764;2023-03-14T01:00:41;8.13;;;2.50;;
74656;SDS011;63185;45.642;13.764;2023-03-14T01:03:08;10.07;;;2.70;;
74656;SDS011;63185;45.642;13.764;2023-03-14T01:05:35;11.18;;;2.80;;
74656;SDS011;63185;45.642;13.764;2023-03-14T01:08:01;13.25;;;2.53;;
74656;SDS011;63185;45.642;13.764;2023-03-14T01:10:26;11.63;;;2.45;;
74656;SDS011;63185;45.642;13.764;2023-03-14T01:12:52;10.00;;;2.30;;
74656;SDS011;63185;45.642;13.764;2023-03-14T01:15:18;9.60;;;2.70;;
74656;SDS011;63185;45.642;13.764;2023-03-14T01:17:44;15.27;;;2.85;;
74656;SDS011;63185;45.642;13.764;2023-03-14T01:20:10;9.10;;;2.40;;
74656;SDS011;63185;45.642;13.764;2023-03-14T01:22:38;11.15;;;2.80;;
74656;SDS011;63185;45.642;13.764;2023-03-14T01:25:08;15.95;;;2.78;;
74656;SDS011;63185;45.642;13.764;2023-03-14T01:27:37;10.32;;;2.47;;
74656;SDS011;63185;45.642;13.764;2023-03-14T01:30:03;12.15;;;2.60;;
74656;SDS011;63185;45.642;13.764;2023-03-14T01:32:29;8.40;;;2.33;;
74656;SDS011;63185;45.642;13.764;2023-03-14T01:34:55;14.00;;;3.00;;
74656;SDS011;63185;45.642;13.764;2023-03-14T01:37:21;17.88;;;3.17;;
74656;SDS011;63185;45.642;13.764;2023-03-14T01:39:47;9.55;;;3.15;;
74656;SDS011;63185;45.642;13.764;2023-03-14T01:42:14;11.10;;;3.22;;
74656;SDS011;63185;45.642;13.764;2023-03-14T01:44:48;12.25;;;3.10;;
74656;SDS011;63185;45.642;13.764;2023-03-14T01:47:21;9.48;;;2.20;;
74656;SDS011;63185;45.642;13.764;2023-03-14T01:49:48;14.60;;;2.30;;
74656;SDS011;63185;45.642;13.764;2023-03-14T01:52:25;15.23;;;2.42;;
74656;SDS011;63185;45.642;13.764;2023-03-14T01:54:59;14.35;;;2.60;;
74656;SDS011;63185;45.642;13.764;2023-03-14T01:57:49;14.18;;;2.83;;
74656;SDS011;63185;45.642;13.764;2023-03-14T02:00:22;13.77;;;2.50;;
74656;SDS011;63185;45.642;13.764;2023-03-14T02:05:20;14.25;;;2.28;;
74656;SDS011;63185;45.642;13.764;2023-03-14T02:07:52;13.77;;;2.85;;
74656;SDS011;63185;45.642;13.764;2023-03-14T02:10:21;11.40;;;2.42;;
74656;SDS011;63185;45.642;13.764;2023-03-14T02:12:49;13.75;;;2.72;;
74656;SDS011;63185;45.642;13.764;2023-03-14T02:15:18;16.27;;;3.20;;
74656;SDS011;63185;45.642;13.764;2023-03-14T02:17:44;10.13;;;3.13;;
74656;SDS011;63185;45.642;13.764;2023-03-14T02:22:51;17.17;;;2.67;;
74656;SDS011;63185;45.642;13.764;2023-03-14T02:28:16;12.32;;;2.55;;
74656;SDS011;63185;45.642;13.764;2023-03-14T02:30:43;19.75;;;2.63;;
74656;SDS011;63185;45.642;13.764;2023-03-14T02:33:10;19.15;;;3.00;;
74656;SDS011;63185;45.642;13.764;2023-03-14T02:35:43;14.43;;;3.03;;
74656;SDS011;63185;45.642;13.764;2023-03-14T02:40:51;17.33;;;2.80;;
74656;SDS011;63185;45.642;13.764;2023-03-14T02:43:17;9.60;;;1.95;;
74656;SDS011;63185;45.642;13.764;2023-03-14T02:48:24;13.63;;;2.50;;
74656;SDS011;63185;45.642;13.764;2023-03-14T02:50:56;12.75;;;2.70;;
74656;SDS011;63185;45.642;13.764;2023-03-14T02:53:30;12.80;;;3.17;;
74656;SDS011;63185;45.642;13.764;2023-03-14T02:55:58;15.38;;;2.80;;
74656;SDS011;63185;45.642;13.764;2023-03-14T02:58:24;15.73;;;3.33;;
74656;SDS011;63185;45.642;13.764;2023-03-14T03:00:50;10.30;;;3.05;;
74656;SDS011;63185;45.642;13.764;2023-03-14T03:03:16;12.88;;;2.80;;
74656;SDS011;63185;45.642;13.764;2023-03-14T03:05:42;12.98;;;2.47;;
74656;SDS011;63185;45.642;13.764;2023-03-14T03:08:08;13.23;;;3.38;;
74656;SDS011;63185;45.642;13.764;2023-03-14T03:10:35;18.35;;;2.90;;
74656;SDS011;63185;45.642;13.764;2023-03-14T03:13:00;14.80;;;3.10;;
74656;SDS011;63185;45.642;13.764;2023-03-14T03:15:26;13.43;;;2.50;;
74656;SDS011;63185;45.642;13.764;2023-03-14T03:17:52;14.07;;;3.17;;
74656;SDS011;63185;45.642;13.764;2023-03-14T03:20:18;13.75;;;2.63;;
74656;SDS011;63185;45.642;13.764;2023-03-14T03:22:44;16.80;;;3.17;;
74656;SDS011;63185;45.642;13.764;2023-03-14T03:25:09;7.53;;;2.28;;
74656;SDS011;63185;45.642;13.764;2023-03-14T03:27:36;13.60;;;3.10;;
74656;SDS011;63185;45.642;13.764;2023-03-14T03:30:03;14.00;;;2.80;;
74656;SDS011;63185;45.642;13.764;2023-03-14T03:32:30;14.23;;;2.78;;
74656;SDS011;63185;45.642;13.764;2023-03-14T03:34:56;13.52;;;2.38;;
74656;SDS011;63185;45.642;13.764;2023-03-14T03:37:22;13.50;;;2.78;;
74656;SDS011;63185;45.642;13.764;2023-03-14T03:39:49;12.93;;;2.58;;
74656;SDS011;63185;45.642;13.764;2023-03-14T03:42:16;13.93;;;2.92;;
74656;SDS011;63185;45.642;13.764;2023-03-14T03:44:42;14.13;;;2.85;;
74656;SDS011;63185;45.642;13.764;2023-03-14T03:47:08;12.60;;;2.33;;
74656;SDS011;63185;45.642;13.764;2023-03-14T03:49:34;16.30;;;3.28;;
74656;SDS011;63185;45.642;13.764;2023-03-14T03:52:00;11.82;;;2.58;;
74656;SDS011;63185;45.642;13.764;2023-03-14T03:54:26;12.02;;;2.40;;
74656;SDS011;63185;45.642;13.764;2023-03-14T03:56:51;12.20;;;2.28;;
74656;SDS011;63185;45.642;13.764;2023-03-14T03:59:17;16.13;;;2.28;;
74656;SDS011;63185;45.642;13.764;2023-03-14T04:01:43;11.75;;;2.38;;
74656;SDS011;63185;45.642;13.764;2023-03-14T04:04:10;12.23;;;2.53;;
74656;SDS011;63185;45.642;13.764;2023-03-14T04:06:36;12.88;;;2.08;;
74656;SDS011;63185;45.642;13.764;2023-03-14T04:09:02;14.88;;;2.50;;
74656;SDS011;63185;45.642;13.764;2023-03-14T04:11:28;11.48;;;2.28;;
74656;SDS011;63185;45.642;13.764;2023-03-14T04:13:53;14.02;;;2.35;;
74656;SDS011;63185;45.642;13.764;2023-03-14T04:16:21;15.05;;;2.40;;
74656;SDS011;63185;45.642;13.764;2023-03-14T04:18:48;14.67;;;2.13;;
74656;SDS011;63185;45.642;13.764;2023-03-14T04:21:14;9.18;;;2.20;;
74656;SDS011;63185;45.642;13.764;2023-03-14T04:23:40;13.05;;;2.30;;
74656;SDS011;63185;45.642;13.764;2023-03-14T04:26:05;12.25;;;2.55;;
74656;SDS011;63185;45.642;13.764;2023-03-14T04:28:32;15.07;;;3.03;;
74656;SDS011;63185;45.642;13.764;2023-03-14T04:30:58;12.73;;;2.20;;
74656;SDS011;63185;45.642;13.764;2023-03-14T04:33:24;14.38;;;2.40;;
74656;SDS011;63185;45.642;13.764;2023-03-14T04:35:52;12.27;;;2.35;;
74656;SDS011;63185;45.642;13.764;2023-03-14T04:40:44;15.30;;;2.60;;
74656;SDS011;63185;45.642;13.764;2023-03-14T04:43:10;13.20;;;2.30;;
74656;SDS011;63185;45.642;13.764;2023-03-14T04:45:36;12.63;;;2.60;;
74656;SDS011;63185;45.642;13.764;2023-03-14T04:48:06;17.17;;;2.92;;
74656;SDS011;63185;45.642;13.764;2023-03-14T04:50:31;20.15;;;3.17;;
74656;SDS011;63185;45.642;13.764;2023-03-14T04:52:57;11.68;;;2.78;;
74656;SDS011;63185;45.642;13.764;2023-03-14T04:55:22;15.93;;;2.70;;
74656;SDS011;63185;45.642;13.764;2023-03-14T04:57:48;11.48;;;2.85;;
74656;SDS011;63185;45.642;13.764;2023-03-14T05:00:14;16.02;;;2.78;;
74656;SDS011;63185;45.642;13.764;2023-03-14T05:02:43;14.45;;;2.83;;
74656;SDS011;63185;45.642;13.764;2023-03-14T05:05:09;13.48;;;3.22;;
74656;SDS011;63185;45.642;13.764;2023-03-14T05:07:35;14.73;;;2.75;;
74656;SDS011;63185;45.642;13.764;2023-03-14T05:10:00;17.38;;;2.95;;
74656;SDS011;63185;45.642;13.764;2023-03-14T05:12:26;13.15;;;2.63;;
74656;SDS011;63185;45.642;13.764;2023-03-14T05:14:52;13.57;;;3.30;;
74656;SDS011;63185;45.642;13.764;2023-03-14T05:17:18;11.18;;;2.28;;
74656;SDS011;63185;45.642;13.764;2023-03-14T05:19:43;14.57;;;2.75;;
74656;SDS011;63185;45.642;13.764;2023-03-14T05:22:10;14.18;;;3.15;;
74656;SDS011;63185;45.642;13.764;2023-03-14T05:24:36;14.90;;;2.90;;
74656;SDS011;63185;45.642;13.764;2023-03-14T05:27:02;11.63;;;2.40;;
74656;SDS011;63185;45.642;13.764;2023-03-14T05:29:28;16.77;;;2.30;;
74656;SDS011;63185;45.642;13.764;2023-03-14T05:31:54;17.67;;;3.33;;
74656;SDS011;63185;45.642;13.764;2023-03-14T05:34:19;16.90;;;2.72;;
74656;SDS011;63185;45.642;13.764;2023-03-14T05:36:45;15.07;;;3.10;;
74656;SDS011;63185;45.642;13.764;2023-03-14T05:39:11;14.45;;;3.35;;
74656;SDS011;63185;45.642;13.764;2023-03-14T05:41:36;15.02;;;3.08;;
74656;SDS011;63185;45.642;13.764;2023-03-14T05:44:02;13.48;;;3.00;;
74656;SDS011;63185;45.642;13.764;2023-03-14T05:46:28;11.75;;;2.38;;
74656;SDS011;63185;45.642;13.764;2023-03-14T05:48:56;14.13;;;3.00;;
74656;SDS011;63185;45.642;13.764;2023-03-14T05:51:25;13.18;;;3.15;;
74656;SDS011;63185;45.642;13.764;2023-03-14T05:53:51;12.32;;;2.25;;
74656;SDS011;63185;45.642;13.764;2023-03-14T05:56:17;8.80;;;2.22;;
74656;SDS011;63185;45.642;13.764;2023-03-14T05:58:42;14.05;;;2.72;;
74656;SDS011;63185;45.642;13.764;2023-03-14T06:01:08;18.45;;;3.92;;
74656;SDS011;63185;45.642;13.764;2023-03-14T06:03:34;11.45;;;2.85;;
74656;SDS011;63185;45.642;13.764;2023-03-14T06:06:00;14.45;;;2.75;;
74656;SDS011;63185;45.642;13.764;2023-03-14T06:08:26;13.68;;;2.60;;
74656;SDS011;63185;45.642;13.764;2023-03-14T06:10:53;14.75;;;3.05;;
74656;SDS011;63185;45.642;13.764;2023-03-14T06:13:19;9.75;;;2.78;;
74656;SDS011;63185;45.642;13.764;2023-03-14T06:15:45;20.45;;;2.28;;
74656;SDS011;63185;45.642;13.764;2023-03-14T06:18:11;16.08;;;3.20;;
74656;SDS011;63185;45.642;13.764;2023-03-14T06:20:37;9.85;;;2.35;;
74656;SDS011;63185;45.642;13.764;2023-03-14T06:23:06;15.77;;;3.00;;
74656;SDS011;63185;45.642;13.764;2023-03-14T06:25:33;15.57;;;3.22;;
74656;SDS011;63185;45.642;13.764;2023-03-14T06:27:59;16.75;;;2.90;;
74656;SDS011;63185;45.642;13.764;2023-03-14T06:30:25;19.50;;;3.58;;
74656;SDS011;63185;45.642;13.764;2023-03-14T06:32:51;12.13;;;2.40;;
74656;SDS011;63185;45.642;13.764;2023-03-14T06:35:16;14.30;;;2.95;;
74656;SDS011;63185;45.642;13.764;2023-03-14T06:37:42;13.70;;;3.50;;
74656;SDS011;63185;45.642;13.764;2023-03-14T06:40:09;16.60;;;3.25;;
74656;SDS011;63185;45.642;13.764;2023-03-14T06:42:35;15.95;;;2.92;;
74656;SDS011;63185;45.642;13.764;2023-03-14T06:45:01;13.15;;;2.75;;
74656;SDS011;63185;45.642;13.764;2023-03-14T06:47:27;18.27;;;2.60;;
74656;SDS011;63185;45.642;13.764;2023-03-14T06:49:53;14.90;;;2.90;;
74656;SDS011;63185;45.642;13.764;2023-03-14T06:52:19;12.93;;;3.10;;
74656;SDS011;63185;45.642;13.764;2023-03-14T06:54:45;15.05;;;3.00;;
74656;SDS011;63185;45.642;13.764;2023-03-14T06:57:10;13.68;;;3.00;;
74656;SDS011;63185;45.642;13.764;2023-03-14T06:59:36;12.55;;;2.83;;
74656;SDS011;63185;45.642;13.764;2023-03-14T07:02:01;20.27;;;3.35;;
74656;SDS011;63185;45.642;13.764;2023-03-14T07:04:27;15.07;;;2.70;;
74656;SDS011;63185;45.642;13.764;2023-03-14T07:06:53;19.25;;;2.90;;
74656;SDS011;63185;45.642;13.764;2023-03-14T07:09:19;14.38;;;2.80;;
74656;SDS011;63185;45.642;13.764;2023-03-14T07:11:44;16.67;;;2.70;;
74656;SDS011;63185;45.642;13.764;2023-03-14T07:14:10;16.27;;;2.60;;
74656;SDS011;63185;45.642;13.764;2023-03-14T07:16:36;17.00;;;2.80;;
74656;SDS011;63185;45.642;13.764;2023-03-14T07:19:02;12.60;;;2.30;;
74656;SDS011;63185;45.642;13.764;2023-03-14T07:21:28;11.45;;;2.42;;
74656;SDS011;63185;45.642;13.764;2023-03-14T07:23:53;12.80;;;2.83;;
74656;SDS011;63185;45.642;13.764;2023-03-14T07:26:19;17.15;;;2.83;;
74656;SDS011;63185;45.642;13.764;2023-03-14T07:28:45;16.73;;;2.67;;
74656;SDS011;63185;45.642;13.764;2023-03-14T07:31:11;11.38;;;2.22;;
74656;SDS011;63185;45.642;13.764;2023-03-14T07:33:37;16.40;;;3.10;;
74656;SDS011;63185;45.642;13.764;2023-03-14T07:36:03;10.82;;;1.98;;
74656;SDS011;63185;45.642;13.764;2023-03-14T07:38:29;14.82;;;2.70;;
74656;SDS011;63185;45.642;13.764;2023-03-14T07:40:58;12.35;;;2.25;;
74656;SDS011;63185;45.642;13.764;2023-03-14T07:43:25;13.88;;;2.50;;
74656;SDS011;63185;45.642;13.764;2023-03-14T07:45:51;13.02;;;2.67;;
74656;SDS011;63185;45.642;13.764;2023-03-14T07:48:17;11.43;;;2.55;;
74656;SDS011;63185;45.642;13.764;2023-03-14T07:50:43;16.95;;;2.33;;
74656;SDS011;63185;45.642;13.764;2023-03-14T07:53:08;12.05;;;2.45;;
74656;SDS011;63185;45.642;13.764;2023-03-14T07:55:34;15.23;;;2.30;;
74656;SDS011;63185;45.642;13.764;2023-03-14T07:58:00;11.00;;;2.15;;
74656;SDS011;63185;45.642;13.764;2023-03-14T08:00:26;10.30;;;2.45;;
74656;SDS011;63185;45.642;13.764;2023-03-14T08:02:52;13.93;;;2.20;;
74656;SDS011;63185;45.642;13.764;2023-03-14T08:05:18;11.20;;;2.05;;
74656;SDS011;63185;45.642;13.764;2023-03-14T08:07:43;11.93;;;2.50;;
74656;SDS011;63185;45.642;13.764;2023-03-14T08:10:09;11.27;;;2.55;;
74656;SDS011;63185;45.642;13.764;2023-03-14T08:12:35;12.52;;;2.42;;
74656;SDS011;63185;45.642;13.764;2023-03-14T08:15:01;8.00;;;2.30;;
74656;SDS011;63185;45.642;13.764;2023-03-14T08:17:27;6.25;;;2.55;;
74656;SDS011;63185;45.642;13.764;2023-03-14T08:19:52;12.85;;;2.30;;
74656;SDS011;63185;45.642;13.764;2023-03-14T08:22:18;13.75;;;2.40;;
74656;SDS011;63185;45.642;13.764;2023-03-14T08:24:44;12.57;;;2.00;;
74656;SDS011;63185;45.642;13.764;2023-03-14T08:27:09;13.57;;;2.45;;
74656;SDS011;63185;45.642;13.764;2023-03-14T08:29:35;16.13;;;2.67;;
74656;SDS011;63185;45.642;13.764;2023-03-14T08:32:01;11.43;;;2.70;;
74656;SDS011;63185;45.642;13.764;2023-03-14T08:34:26;14.60;;;2.28;;
74656;SDS011;63185;45.642;13.764;2023-03-14T08:36:52;14.80;;;2.28;;
74656;SDS011;63185;45.642;13.764;2023-03-14T08:39:18;10.18;;;2.22;;
74656;SDS011;63185;45.642;13.764;2023-03-14T08:41:43;11.93;;;2.40;;
74656;SDS011;63185;45.642;13.764;2023-03-14T08:44:09;13.80;;;2.70;;
74656;SDS011;63185;45.642;13.764;2023-03-14T08:46:36;9.88;;;2.50;;
74656;SDS011;63185;45.642;13.764;2023-03-14T08:49:02;13.35;;;2.20;;
74656;SDS011;63185;45.642;13.764;2023-03-14T08:51:28;11.82;;;2.42;;
74656;SDS011;63185;45.642;13.764;2023-03-14T08:53:54;11.75;;;3.00;;
74656;SDS011;63185;45.642;13.764;2023-03-14T08:56:20;11.90;;;2.78;;
74656;SDS011;63185;45.642;13.764;2023-03-14T08:58:46;8.50;;;2.13;;
74656;SDS011;63185;45.642;13.764;2023-03-14T09:01:12;11.73;;;2.10;;
74656;SDS011;63185;45.642;13.764;2023-03-14T09:03:37;10.38;;;2.15;;
74656;SDS011;63185;45.642;13.764;2023-03-14T09:06:04;10.50;;;1.95;;
74656;SDS011;63185;45.642;13.764;2023-03-14T09:08:34;7.63;;;2.10;;
74656;SDS011;63185;45.642;13.764;2023-03-14T09:11:01;9.32;;;2.25;;
74656;SDS011;63185;45.642;13.764;2023-03-14T09:13:26;12.05;;;2.38;;
74656;SDS011;63185;45.642;13.764;2023-03-14T09:15:55;9.50;;;2.58;;
74656;SDS011;63185;45.642;13.764;2023-03-14T09:18:21;10.93;;;1.92;;
74656;SDS011;63185;45.642;13.764;2023-03-14T09:20:47;11.65;;;2.17;;
74656;SDS011;63185;45.642;13.764;2023-03-14T09:23:13;12.05;;;2.47;;
74656;SDS011;63185;45.642;13.764;2023-03-14T09:25:40;13.10;;;2.28;;
74656;SDS011;63185;45.642;13.764;2023-03-14T09:28:05;9.60;;;2.40;;
74656;SDS011;63185;45.642;13.764;2023-03-14T09:30:31;11.88;;;1.90;;
74656;SDS011;63185;45.642;13.764;2023-03-14T09:32:57;10.68;;;2.30;;
74656;SDS011;63185;45.642;13.764;2023-03-14T09:35:24;11.85;;;2.28;;
74656;SDS011;63185;45.642;13.764;2023-03-14T09:37:50;12.63;;;2.17;;
74656;SDS011;63185;45.642;13.764;2023-03-14T09:40:16;18.65;;;3.08;;
74656;SDS011;63185;45.642;13.764;2023-03-14T09:42:45;10.52;;;2.30;;
74656;SDS011;63185;45.642;13.764;2023-03-14T09:45:33;8.93;;;2.13;;
74656;SDS011;63185;45.642;13.764;2023-03-14T09:48:01;12.63;;;2.55;;
74656;SDS011;63185;45.642;13.764;2023-03-14T09:50:35;12.25;;;2.38;;
74656;SDS011;63185;45.642;13.764;2023-03-14T09:53:07;12.27;;;2.25;;
74656;SDS011;63185;45.642;13.764;2023-03-14T09:55:38;8.50;;;2.40;;
74656;SDS011;63185;45.642;13.764;2023-03-14T09:58:08;9.45;;;2.95;;
74656;SDS011;63185;45.642;13.764;2023-03-14T10:00:36;8.07;;;2.45;;
74656;SDS011;63185;45.642;13.764;2023-03-14T10:05:34;13.35;;;2.92;;
74656;SDS011;63185;45.642;13.764;2023-03-14T10:07:59;13.07;;;2.53;;
74656;SDS011;63185;45.642;13.764;2023-03-14T10:10:25;16.52;;;2.67;;
74656;SDS011;63185;45.642;13.764;2023-03-14T10:12:56;12.20;;;2.60;;
74656;SDS011;63185;45.642;13.764;2023-03-14T10:15:25;13.10;;;2.47;;
74656;SDS011;63185;45.642;13.764;2023-03-14T10:17:54;8.93;;;2.42;;
74656;SDS011;63185;45.642;13.764;2023-03-14T10:20:37;13.13;;;2.92;;
74656;SDS011;63185;45.642;13.764;2023-03-14T10:25:39;12.63;;;2.50;;
74656;SDS011;63185;45.642;13.764;2023-03-14T10:31:11;15.48;;;2.92;;
74656;SDS011;63185;45.642;13.764;2023-03-14T10:33:38;13.77;;;2.88;;
74656;SDS011;63185;45.642;13.764;2023-03-14T10:36:20;10.30;;;3.05;;
74656;SDS011;63185;45.642;13.764;2023-03-14T10:38:50;14.20;;;2.83;;
74656;SDS011;63185;45.642;13.764;2023-03-14T10:41:46;12.18;;;2.78;;
74656;SDS011;63185;45.642;13.764;2023-03-14T10:44:20;11.57;;;2.75;;
74656;SDS011;63185;45.642;13.764;2023-03-14T10:51:54;11.63;;;3.03;;
74656;SDS011;63185;45.642;13.764;2023-03-14T10:54:21;13.15;;;2.80;;
74656;SDS011;63185;45.642;13.764;2023-03-14T10:57:01;13.32;;;2.97;;
74656;SDS011;63185;45.642;13.764;2023-03-14T10:59:35;14.85;;;3.20;;
74656;SDS011;63185;45.642;13.764;2023-03-14T11:16:02;11.82;;;3.60;;
74656;SDS011;63185;45.642;13.764;2023-03-14T11:21:29;13.60;;;3.28;;
74656;SDS011;63185;45.642;13.764;2023-03-14T11:27:43;19.05;;;3.20;;
74656;SDS011;63185;45.642;13.764;2023-03-14T11:33:02;26.42;;;3.85;;
74656;SDS011;63185;45.642;13.764;2023-03-14T11:35:42;13.63;;;3.92;;
74656;SDS011;63185;45.642;13.764;2023-03-14T11:41:14;17.20;;;3.63;;
74656;SDS011;63185;45.642;13.764;2023-03-14T11:43:48;16.05;;;3.38;;
74656;SDS011;63185;45.642;13.764;2023-03-14T11:51:29;18.00;;;3.33;;
74656;SDS011;63185;45.642;13.764;2023-03-14T11:56:34;14.77;;;3.20;;
74656;SDS011;63185;45.642;13.764;2023-03-14T11:59:16;20.25;;;4.35;;
74656;SDS011;63185;45.642;13.764;2023-03-14T12:07:38;16.05;;;3.38;;
74656;SDS011;63185;45.642;13.764;2023-03-14T12:10:18;16.90;;;3.80;;
74656;SDS011;63185;45.642;13.764;2023-03-14T12:12:43;22.50;;;3.95;;
74656;SDS011;63185;45.642;13.764;2023-03-14T12:15:18;19.15;;;3.72;;
74656;SDS011;63185;45.642;13.764;2023-03-14T12:17:45;26.85;;;4.22;;
74656;SDS011;63185;45.642;13.764;2023-03-14T12:20:20;18.45;;;3.90;;
74656;SDS011;63185;45.642;13.764;2023-03-14T12:22:47;17.20;;;3.75;;
74656;SDS011;63185;45.642;13.764;2023-03-14T12:25:15;16.17;;;3.60;;
74656;SDS011;63185;45.642;13.764;2023-03-14T12:30:35;16.92;;;3.53;;
74656;SDS011;63185;45.642;13.764;2023-03-14T12:35:37;13.73;;;3.35;;
74656;SDS011;63185;45.642;13.764;2023-03-14T12:38:11;18.92;;;3.58;;
74656;SDS011;63185;45.642;13.764;2023-03-14T12:43:47;16.52;;;3.53;;
74656;SDS011;63185;45.642;13.764;2023-03-14T12:48:45;21.73;;;3.95;;
74656;SDS011;63185;45.642;13.764;2023-03-14T12:51:12;20.02;;;3.63;;
74656;SDS011;63185;45.642;13.764;2023-03-14T12:56:20;17.13;;;3.55;;
74656;SDS011;63185;45.642;13.764;2023-03-14T13:01:55;18.85;;;3.40;;
74656;SDS011;63185;45.642;13.764;2023-03-14T13:04:43;21.30;;;4.40;;
74656;SDS011;63185;45.642;13.764;2023-03-14T13:07:30;18.02;;;4.00;;
74656;SDS011;63185;45.642;13.764;2023-03-14T13:12:41;22.00;;;3.85;;
74656;SDS011;63185;45.642;13.764;2023-03-14T13:15:31;17.52;;;3.55;;
74656;SDS011;63185;45.642;13.764;2023-03-14T13:18:11;22.95;;;5.00;;
74656;SDS011;63185;45.642;13.764;2023-03-14T13:20:40;21.27;;;4.78;;
74656;SDS011;63185;45.642;13.764;2023-03-14T13:23:23;22.92;;;3.90;;
74656;SDS011;63185;45.642;13.764;2023-03-14T13:25:50;20.75;;;4.47;;
74656;SDS011;63185;45.642;13.764;2023-03-14T13:28:17;23.30;;;4.45;;
74656;SDS011;63185;45.642;13.764;2023-03-14T13:30:44;21.63;;;4.55;;
74656;SDS011;63185;45.642;13.764;2023-03-14T13:33:23;19.35;;;4.10;;
74656;SDS011;63185;45.642;13.764;2023-03-14T13:35:57;19.40;;;3.95;;
74656;SDS011;63185;45.642;13.764;2023-03-14T13:38:26;27.02;;;4.90;;
74656;SDS011;63185;45.642;13.764;2023-03-14T13:40:55;21.83;;;4.38;;
74656;SDS011;63185;45.642;13.764;2023-03-14T13:43:31;27.67;;;4.25;;
74656;SDS011;63185;45.642;13.764;2023-03-14T13:46:14;27.67;;;5.30;;
74656;SDS011;63185;45.642;13.764;2023-03-14T13:48:45;23.85;;;4.68;;
74656;SDS011;63185;45.642;13.764;2023-03-14T13:51:18;26.88;;;5.30;;
74656;SDS011;63185;45.642;13.764;2023-03-14T13:53:49;27.90;;;5.10;;
74656;SDS011;63185;45.642;13.764;2023-03-14T13:56:23;27.35;;;4.88;;
74656;SDS011;63185;45.642;13.764;2023-03-14T13:58:50;19.63;;;4.63;;
74656;SDS011;63185;45.642;13.764;2023-03-14T14:03:56;28.92;;;5.32;;
74656;SDS011;63185;45.642;13.764;2023-03-14T14:06:30;25.67;;;5.38;;
74656;SDS011;63185;45.642;13.764;2023-03-14T14:09:02;19.45;;;4.28;;
74656;SDS011;63185;45.642;13.764;2023-03-14T14:14:36;24.63;;;5.25;;
74656;SDS011;63185;45.642;13.764;2023-03-14T14:17:06;20.33;;;4.38;;
74656;SDS011;63185;45.642;13.764;2023-03-14T14:19:37;20.95;;;4.65;;
74656;SDS011;63185;45.642;13.764;2023-03-14T14:22:05;25.67;;;5.30;;
74656;SDS011;63185;45.642;13.764;2023-03-14T14:24:32;20.48;;;4.43;;
74656;SDS011;63185;45.642;13.764;2023-03-14T14:27:08;24.63;;;4.68;;
74656;SDS011;63185;45.642;13.764;2023-03-14T14:29:35;20.05;;;4.22;;
74656;SDS011;63185;45.642;13.764;2023-03-14T14:37:26;14.65;;;4.07;;
74656;SDS011;63185;45.642;13.764;2023-03-14T14:39:55;21.08;;;4.35;;
74656;SDS011;63185;45.642;13.764;2023-03-14T14:42:42;24.35;;;5.50;;
74656;SDS011;63185;45.642;13.764;2023-03-14T14:45:16;18.35;;;4.43;;
74656;SDS011;63185;45.642;13.764;2023-03-14T14:47:51;21.77;;;4.55;;
74656;SDS011;63185;45.642;13.764;2023-03-14T14:52:57;21.10;;;5.10;;
74656;SDS011;63185;45.642;13.764;2023-03-14T14:55:31;18.63;;;5.13;;
74656;SDS011;63185;45.642;13.764;2023-03-14T14:58:10;21.48;;;6.53;;
74656;SDS011;63185;45.642;13.764;2023-03-14T15:00:50;21.73;;;5.82;;
74656;SDS011;63185;45.642;13.764;2023-03-14T15:03:21;18.80;;;5.63;;
74656;SDS011;63185;45.642;13.764;2023-03-14T15:05:47;21.23;;;6.15;;
74656;SDS011;63185;45.642;13.764;2023-03-14T15:08:13;19.00;;;5.78;;
74656;SDS011;63185;45.642;13.764;2023-03-14T15:10:40;21.10;;;5.60;;
74656;SDS011;63185;45.642;13.764;2023-03-14T15:13:06;17.23;;;5.38;;
74656;SDS011;63185;45.642;13.764;2023-03-14T15:15:31;20.85;;;5.15;;
74656;SDS011;63185;45.642;13.764;2023-03-14T15:17:57;26.38;;;5.47;;
74656;SDS011;63185;45.642;13.764;2023-03-14T15:20:23;17.30;;;4.90;;
74656;SDS011;63185;45.642;13.764;2023-03-14T15:22:49;25.00;;;5.30;;
74656;SDS011;63185;45.642;13.764;2023-03-14T15:25:16;18.40;;;4.82;;
74656;SDS011;63185;45.642;13.764;2023-03-14T15:27:41;17.45;;;5.03;;
74656;SDS011;63185;45.642;13.764;2023-03-14T15:30:14;28.63;;;5.82;;
74656;SDS011;63185;45.642;13.764;2023-03-14T15:32:41;23.58;;;5.53;;
74656;SDS011;63185;45.642;13.764;2023-03-14T15:35:07;23.05;;;5.80;;
74656;SDS011;63185;45.642;13.764;2023-03-14T15:37:33;20.58;;;5.32;;
74656;SDS011;63185;45.642;13.764;2023-03-14T15:40:00;20.35;;;4.60;;
74656;SDS011;63185;45.642;13.764;2023-03-14T15:42:28;19.98;;;4.88;;
74656;SDS011;63185;45.642;13.764;2023-03-14T15:44:53;19.50;;;5.30;;
74656;SDS011;63185;45.642;13.764;2023-03-14T15:47:19;20.80;;;5.28;;
74656;SDS011;63185;45.642;13.764;2023-03-14T15:49:45;24.40;;;6.20;;
74656;SDS011;63185;45.642;13.764;2023-03-14T15:52:10;20.45;;;5.30;;
74656;SDS011;63185;45.642;13.764;2023-03-14T15:54:36;23.27;;;6.03;;
74656;SDS011;63185;45.642;13.764;2023-03-14T15:57:02;25.98;;;5.93;;
74656;SDS011;63185;45.642;13.764;2023-03-14T15:59:27;20.75;;;5.45;;
74656;SDS011;63185;45.642;13.764;2023-03-14T16:01:53;26.83;;;5.53;;
74656;SDS011;63185;45.642;13.764;2023-03-14T16:04:19;29.50;;;5.53;;
74656;SDS011;63185;45.642;13.764;2023-03-14T16:06:45;21.95;;;4.90;;
74656;SDS011;63185;45.642;13.764;2023-03-14T16:09:11;20.45;;;5.32;;
74656;SDS011;63185;45.642;13.764;2023-03-14T16:11:37;21.60;;;5.07;;